Time;durP1;ratioP1;P1;durP2;ratioP2;P2;SDS_P1;SDS_P2;PMS_P1;PMS_P2;Temp;Humidity;BMP_temperature;BMP_pressure;BME280_temperature;BME280_humidity;BME280_pressure;Samples;Min_cycle;Max_cycle;Signal;HPM_P1;HPM_P2
2022/02/23 00:00:20;;;;;;;4.57;1.48;;;;;;;;;;5034195;28;20029;-70
2022/02/23 00:02:47;;;;;;;1.92;1.27;;;;;;;;;;5030217;28;20056;-67
2022/02/23 00:05:14;;;;;;;5.82;1.30;;;;;;;;;;5028720;28;20354;-69
2022/02/23 00:07:40;;;;;;;2.40;1.10;;;;;;;;;;5029102;28;20099;-68
2022/02/23 00:10:07;;;;;;;2.70;0.98;;;;;;;;;;5028951;28;20473;-67
2022/02/23 00:12:34;;;;;;;1.92;1.13;;;;;;;;;;5031764;28;20055;-69
2022/02/23 00:15:01;;;;;;;4.60;1.27;;;;;;;;;;5033520;28;20029;-69
2022/02/23 00:17:28;;;;;;;2.60;1.13;;;;;;;;;;5033994;28;20072;-69
2022/02/23 00:19:55;;;;;;;1.42;0.95;;;;;;;;;;5033767;28;20432;-69
2022/02/23 00:22:22;;;;;;;3.17;1.02;;;;;;;;;;5033360;28;20032;-69
2022/02/23 00:24:49;;;;;;;3.30;1.27;;;;;;;;;;5030412;28;20029;-69
2022/02/23 00:27:16;;;;;;;3.00;1.40;;;;;;;;;;5028544;28;20037;-69
2022/02/23 00:29:43;;;;;;;2.15;1.17;;;;;;;;;;5028534;28;20025;-69
2022/02/23 00:32:09;;;;;;;6.00;1.02;;;;;;;;;;5028266;28;20064;-71
2022/02/23 00:34:36;;;;;;;3.25;1.27;;;;;;;;;;5030919;28;20404;-73
2022/02/23 00:37:03;;;;;;;3.53;1.20;;;;;;;;;;5033307;28;20131;-70
2022/02/23 00:39:29;;;;;;;2.10;1.08;;;;;;;;;;5033509;28;20025;-69
2022/02/23 00:41:56;;;;;;;2.00;1.00;;;;;;;;;;5033315;28;20469;-71
2022/02/23 00:44:23;;;;;;;3.08;1.17;;;;;;;;;;5033005;28;20037;-71
2022/02/23 00:46:50;;;;;;;2.95;1.30;;;;;;;;;;5012165;28;20027;-73
2022/02/23 00:49:16;;;;;;;2.67;1.23;;;;;;;;;;5027681;28;20487;-70
2022/02/23 00:51:43;;;;;;;6.83;1.50;;;;;;;;;;5028283;28;20030;-69
2022/02/23 00:54:10;;;;;;;3.27;1.03;;;;;;;;;;5028086;28;20037;-69
2022/02/23 00:56:36;;;;;;;2.97;1.27;;;;;;;;;;5029923;28;20040;-70
2022/02/23 00:59:03;;;;;;;3.13;1.10;;;;;;;;;;5033172;28;20044;-72
2022/02/23 01:01:30;;;;;;;4.87;1.60;;;;;;;;;;5033024;28;20052;-71
2022/02/23 01:03:56;;;;;;;5.30;1.30;;;;;;;;;;5032505;28;20049;-71
2022/02/23 01:06:23;;;;;;;2.63;1.63;;;;;;;;;;5032549;28;20052;-70
2022/02/23 01:08:50;;;;;;;2.90;1.07;;;;;;;;;;5030810;28;20025;-71
2022/02/23 01:11:19;;;;;;;2.07;1.37;;;;;;;;;;5027395;28;20025;-70
2022/02/23 01:13:49;;;;;;;3.50;1.17;;;;;;;;;;5027423;28;20029;-70
2022/02/23 01:16:16;;;;;;;3.97;1.03;;;;;;;;;;5027849;28;20030;-70
2022/02/23 01:18:43;;;;;;;4.47;1.40;;;;;;;;;;5029278;28;20033;-71
2022/02/23 01:21:10;;;;;;;4.93;1.60;;;;;;;;;;5032436;28;20024;-69
2022/02/23 01:23:36;;;;;;;3.73;1.47;;;;;;;;;;5032874;28;20029;-70
2022/02/23 01:26:03;;;;;;;8.53;1.90;;;;;;;;;;5032456;28;20102;-70
2022/02/23 01:28:30;;;;;;;11.67;2.27;;;;;;;;;;5032589;28;20048;-70
2022/02/23 01:30:57;;;;;;;11.20;2.27;;;;;;;;;;5030954;28;20033;-68
2022/02/23 01:33:24;;;;;;;7.83;2.50;;;;;;;;;;5027362;28;20424;-69
2022/02/23 01:35:51;;;;;;;6.17;2.50;;;;;;;;;;5027510;28;20025;-68
2022/02/23 01:38:18;;;;;;;6.97;2.33;;;;;;;;;;5027231;28;20033;-70
2022/02/23 01:40:44;;;;;;;10.73;3.63;;;;;;;;;;5028120;28;20029;-69
2022/02/23 01:43:11;;;;;;;4.87;2.47;;;;;;;;;;5032118;28;20041;-68
2022/02/23 01:45:38;;;;;;;8.40;2.07;;;;;;;;;;5032311;28;20527;-69
2022/02/23 01:48:05;;;;;;;3.30;1.60;;;;;;;;;;5032457;28;20026;-70
2022/02/23 01:50:32;;;;;;;11.37;2.10;;;;;;;;;;5032160;28;20056;-71
2022/02/23 01:52:58;;;;;;;8.43;1.90;;;;;;;;;;5031049;28;20034;-70
2022/02/23 01:55:25;;;;;;;4.60;2.13;;;;;;;;;;5027040;28;20022;-69
2022/02/23 01:57:52;;;;;;;9.70;3.57;;;;;;;;;;5026689;28;20436;-69
2022/02/23 02:00:19;;;;;;;10.70;3.27;;;;;;;;;;5027279;28;20025;-70
2022/02/23 02:02:47;;;;;;;6.90;4.00;;;;;;;;;;5027532;28;20394;-70
2022/02/23 02:05:15;;;;;;;8.70;2.73;;;;;;;;;;5032300;28;20431;-69
2022/02/23 02:07:42;;;;;;;5.77;2.63;;;;;;;;;;5032103;28;20021;-69
2022/02/23 02:10:10;;;;;;;9.97;2.33;;;;;;;;;;5031673;28;20488;-70
2022/02/23 02:12:36;;;;;;;9.50;2.60;;;;;;;;;;5031866;28;20049;-69
2022/02/23 02:15:04;;;;;;;8.87;2.57;;;;;;;;;;5031089;28;20132;-70
2022/02/23 02:17:30;;;;;;;10.13;2.47;;;;;;;;;;5007528;28;20434;-69
2022/02/23 02:19:57;;;;;;;4.17;2.30;;;;;;;;;;5018978;28;20550;-70
2022/02/23 02:22:28;;;;;;;6.93;2.60;;;;;;;;;;5027191;28;20037;-71
2022/02/23 02:24:56;;;;;;;9.60;3.13;;;;;;;;;;5026855;28;20033;-70
2022/02/23 02:27:22;;;;;;;7.53;3.33;;;;;;;;;;5031568;28;20028;-70
2022/02/23 02:29:49;;;;;;;8.73;3.47;;;;;;;;;;5031856;28;20036;-68
2022/02/23 02:32:17;;;;;;;8.13;3.30;;;;;;;;;;5031646;28;20029;-68
2022/02/23 02:34:44;;;;;;;3.97;2.17;;;;;;;;;;5031953;28;20029;-69
2022/02/23 02:37:11;;;;;;;4.03;1.70;;;;;;;;;;5031382;28;20030;-67
2022/02/23 02:39:38;;;;;;;3.33;1.37;;;;;;;;;;5026815;28;20060;-69
2022/02/23 02:42:05;;;;;;;3.27;1.20;;;;;;;;;;5026592;28;20053;-69
2022/02/23 02:44:32;;;;;;;2.03;0.90;;;;;;;;;;5026611;28;20075;-70
2022/02/23 02:46:58;;;;;;;4.33;1.30;;;;;;;;;;5026746;28;20055;-69
2022/02/23 02:49:25;;;;;;;2.00;1.27;;;;;;;;;;5030934;28;20025;-69
2022/02/23 02:51:52;;;;;;;2.13;1.30;;;;;;;;;;5031593;28;20046;-70
2022/02/23 02:54:19;;;;;;;2.40;1.00;;;;;;;;;;5031289;28;20052;-69
2022/02/23 02:56:46;;;;;;;1.87;1.00;;;;;;;;;;5031734;28;20093;-69
2022/02/23 02:59:13;;;;;;;2.93;1.47;;;;;;;;;;5031349;28;20030;-69
2022/02/23 03:01:39;;;;;;;5.00;1.53;;;;;;;;;;5026450;28;20026;-68
2022/02/23 03:04:07;;;;;;;2.93;1.43;;;;;;;;;;5026339;28;20120;-70
2022/02/23 03:06:34;;;;;;;3.50;1.60;;;;;;;;;;5026697;28;20029;-69
2022/02/23 03:09:01;;;;;;;5.13;1.30;;;;;;;;;;5027969;28;20030;-70
2022/02/23 03:11:28;;;;;;;2.73;1.37;;;;;;;;;;5034484;28;20371;-70
2022/02/23 03:13:54;;;;;;;4.80;1.40;;;;;;;;;;5034857;28;20415;-69
2022/02/23 03:16:22;;;;;;;3.47;1.60;;;;;;;;;;5035156;28;20052;-69
2022/02/23 03:18:49;;;;;;;7.20;1.57;;;;;;;;;;5034696;28;20052;-72
2022/02/23 03:21:15;;;;;;;4.67;1.27;;;;;;;;;;5035038;28;20026;-69
2022/02/23 03:23:42;;;;;;;5.13;1.13;;;;;;;;;;5030281;28;20029;-70
2022/02/23 03:26:09;;;;;;;11.17;1.93;;;;;;;;;;5029922;28;20021;-69
2022/02/23 03:28:37;;;;;;;3.77;1.77;;;;;;;;;;5029785;28;20111;-69
2022/02/23 03:31:06;;;;;;;4.13;1.57;;;;;;;;;;5029362;28;20036;-69
2022/02/23 03:33:34;;;;;;;3.53;1.83;;;;;;;;;;5033242;28;20407;-69
2022/02/23 03:36:01;;;;;;;5.47;1.97;;;;;;;;;;5034473;28;20091;-68
2022/02/23 03:38:28;;;;;;;2.50;1.30;;;;;;;;;;5034608;28;20033;-69
2022/02/23 03:40:57;;;;;;;6.90;1.90;;;;;;;;;;5034672;28;20041;-69
2022/02/23 03:43:23;;;;;;;4.50;1.57;;;;;;;;;;5034632;28;20057;-69
2022/02/23 03:45:50;;;;;;;4.03;1.50;;;;;;;;;;5029364;28;20029;-69
2022/02/23 03:48:17;;;;;;;2.60;1.27;;;;;;;;;;5029389;28;20049;-69
2022/02/23 03:50:43;;;;;;;2.93;1.50;;;;;;;;;;5029217;28;20136;-69
2022/02/23 03:53:10;;;;;;;3.13;1.20;;;;;;;;;;5029346;28;20037;-69
2022/02/23 03:55:37;;;;;;;2.63;1.00;;;;;;;;;;5032737;28;20021;-69
2022/02/23 03:58:03;;;;;;;2.40;1.00;;;;;;;;;;5034326;28;20017;-68
2022/02/23 04:00:30;;;;;;;3.30;1.40;;;;;;;;;;5034312;28;20109;-69
2022/02/23 04:02:57;;;;;;;4.67;1.40;;;;;;;;;;5033370;28;20018;-69
2022/02/23 04:05:23;;;;;;;2.33;0.97;;;;;;;;;;5033746;28;20030;-69
2022/02/23 04:07:50;;;;;;;3.93;1.43;;;;;;;;;;5030477;28;20025;-69
2022/02/23 04:10:19;;;;;;;4.70;1.50;;;;;;;;;;5029276;28;20423;-69
2022/02/23 04:12:47;;;;;;;2.23;1.07;;;;;;;;;;5029005;28;20042;-69
2022/02/23 04:15:14;;;;;;;3.30;1.20;;;;;;;;;;5029018;28;20075;-69
2022/02/23 04:17:41;;;;;;;2.93;1.30;;;;;;;;;;5031854;28;20022;-69
2022/02/23 04:20:08;;;;;;;5.33;1.60;;;;;;;;;;5032994;28;20049;-68
2022/02/23 04:22:35;;;;;;;3.87;1.20;;;;;;;;;;5033932;28;20025;-68
2022/02/23 04:25:03;;;;;;;3.50;1.20;;;;;;;;;;5033784;28;20113;-68
2022/02/23 04:27:29;;;;;;;3.27;1.67;;;;;;;;;;5033793;28;20028;-69
2022/02/23 04:29:56;;;;;;;2.87;1.30;;;;;;;;;;5030482;28;20083;-69
2022/02/23 04:32:23;;;;;;;1.93;1.10;;;;;;;;;;5028760;28;20025;-68
2022/02/23 04:34:53;;;;;;;4.30;1.20;;;;;;;;;;5027857;28;20033;-69
2022/02/23 04:37:20;;;;;;;2.33;1.17;;;;;;;;;;5028547;28;20041;-69
2022/02/23 04:39:47;;;;;;;2.87;1.63;;;;;;;;;;5031014;28;20407;-68
2022/02/23 04:42:14;;;;;;;4.87;2.00;;;;;;;;;;5033583;28;20022;-69
2022/02/23 04:44:40;;;;;;;4.27;1.50;;;;;;;;;;5033480;28;20103;-69
2022/02/23 04:47:07;;;;;;;3.37;1.70;;;;;;;;;;5033283;28;20043;-70
2022/02/23 04:49:35;;;;;;;4.63;1.40;;;;;;;;;;5033031;28;20112;-69
2022/02/23 04:52:01;;;;;;;4.30;1.30;;;;;;;;;;5030058;28;20034;-69
2022/02/23 04:54:28;;;;;;;2.97;1.20;;;;;;;;;;5027964;28;20099;-68
2022/02/23 04:56:55;;;;;;;3.17;1.20;;;;;;;;;;5028212;28;20017;-68
2022/02/23 04:59:21;;;;;;;1.77;0.90;;;;;;;;;;5028140;28;20083;-69
2022/02/23 05:01:48;;;;;;;3.57;1.20;;;;;;;;;;5030013;28;20029;-68
2022/02/23 05:04:15;;;;;;;3.13;1.00;;;;;;;;;;5032854;28;20041;-69
2022/02/23 05:06:41;;;;;;;3.90;1.20;;;;;;;;;;5032656;28;20052;-68
2022/02/23 05:09:08;;;;;;;1.87;1.17;;;;;;;;;;5032972;28;20029;-69
2022/02/23 05:11:35;;;;;;;2.73;1.20;;;;;;;;;;5032791;28;20025;-68
2022/02/23 05:14:01;;;;;;;2.80;1.10;;;;;;;;;;5029841;28;20120;-69
2022/02/23 05:16:28;;;;;;;3.03;1.57;;;;;;;;;;5027529;28;20029;-69
2022/02/23 05:18:55;;;;;;;3.30;1.20;;;;;;;;;;5027431;28;20634;-69
2022/02/23 05:21:21;;;;;;;2.50;1.17;;;;;;;;;;5027742;28;20061;-69
2022/02/23 05:23:48;;;;;;;3.93;1.10;;;;;;;;;;5028963;28;20033;-69
2022/02/23 05:26:15;;;;;;;2.13;1.20;;;;;;;;;;5032921;28;20488;-68
2022/02/23 05:28:41;;;;;;;3.87;1.30;;;;;;;;;;5032642;28;20032;-69
2022/02/23 05:31:08;;;;;;;2.87;0.97;;;;;;;;;;5031952;28;20040;-68
2022/02/23 05:33:35;;;;;;;2.27;1.23;;;;;;;;;;5031879;28;20376;-69
2022/02/23 05:36:01;;;;;;;2.40;1.10;;;;;;;;;;5030873;28;20075;-68
2022/02/23 05:38:28;;;;;;;3.13;1.37;;;;;;;;;;5027486;28;20033;-68
2022/02/23 05:40:57;;;;;;;3.67;1.30;;;;;;;;;;5027264;28;20018;-68
2022/02/23 05:43:24;;;;;;;2.77;1.43;;;;;;;;;;5027567;28;20021;-69
2022/02/23 05:45:51;;;;;;;4.13;1.30;;;;;;;;;;5010581;28;20037;-68
2022/02/23 05:48:17;;;;;;;2.73;1.30;;;;;;;;;;5032292;28;20053;-66
2022/02/23 05:50:45;;;;;;;2.73;1.10;;;;;;;;;;5032265;28;20061;-64
2022/02/23 05:53:11;;;;;;;3.10;1.63;;;;;;;;;;5032290;28;20123;-63
2022/02/23 05:55:38;;;;;;;3.23;1.23;;;;;;;;;;5032270;28;20025;-66
2022/02/23 05:58:05;;;;;;;3.67;1.20;;;;;;;;;;5030533;28;20021;-67
2022/02/23 06:00:32;;;;;;;2.73;1.37;;;;;;;;;;5027318;28;20026;-70
2022/02/23 06:02:59;;;;;;;2.93;1.20;;;;;;;;;;5026871;28;20054;-70
2022/02/23 06:05:25;;;;;;;2.70;1.20;;;;;;;;;;5027240;28;20022;-72
2022/02/23 06:07:54;;;;;;;1.83;0.93;;;;;;;;;;5027759;28;20480;-73
2022/02/23 06:10:24;;;;;;;1.90;0.97;;;;;;;;;;5030142;28;20568;-72
2022/02/23 06:12:51;;;;;;;3.30;1.00;;;;;;;;;;5029863;28;20029;-72
2022/02/23 06:15:17;;;;;;;2.70;0.83;;;;;;;;;;5030047;28;20018;-72
2022/02/23 06:17:44;;;;;;;2.37;0.83;;;;;;;;;;5030182;28;20033;-72
2022/02/23 06:20:11;;;;;;;2.83;1.20;;;;;;;;;;5028874;28;20108;-72
2022/02/23 06:22:38;;;;;;;4.03;1.27;;;;;;;;;;5025713;28;20032;-72
2022/02/23 06:25:05;;;;;;;2.33;1.40;;;;;;;;;;5026492;28;20028;-72
2022/02/23 06:27:31;;;;;;;2.30;1.20;;;;;;;;;;5026842;28;20057;-72
2022/02/23 06:29:58;;;;;;;3.57;1.40;;;;;;;;;;5026468;28;20029;-72
2022/02/23 06:32:25;;;;;;;3.60;1.70;;;;;;;;;;5031814;28;20071;-72
2022/02/23 06:34:51;;;;;;;5.07;1.90;;;;;;;;;;5031403;28;20060;-72
2022/02/23 06:37:18;;;;;;;3.00;1.53;;;;;;;;;;5031781;28;20033;-72
2022/02/23 06:39:45;;;;;;;3.67;1.60;;;;;;;;;;5031833;28;20066;-72
2022/02/23 06:42:12;;;;;;;4.80;1.37;;;;;;;;;;5031584;28;20018;-72
2022/02/23 06:44:39;;;;;;;1.80;1.03;;;;;;;;;;5030238;28;20021;-72
2022/02/23 06:47:06;;;;;;;4.00;1.23;;;;;;;;;;5029974;28;20025;-73
2022/02/23 06:49:35;;;;;;;3.10;1.50;;;;;;;;;;5029841;28;20044;-72
2022/02/23 06:52:02;;;;;;;3.07;1.30;;;;;;;;;;5010545;28;20030;-72
2022/02/23 06:54:29;;;;;;;2.93;1.67;;;;;;;;;;5015291;28;20056;-72
2022/02/23 06:56:56;;;;;;;4.63;1.27;;;;;;;;;;5015620;28;20025;-72
2022/02/23 06:59:22;;;;;;;5.07;1.60;;;;;;;;;;4998200;28;20402;-72
2022/02/23 07:01:49;;;;;;;2.67;1.33;;;;;;;;;;5015331;28;20064;-72
2022/02/23 07:04:16;;;;;;;4.10;2.00;;;;;;;;;;5015433;28;20493;-72
2022/02/23 07:06:43;;;;;;;3.17;1.43;;;;;;;;;;5026835;28;20053;-72
2022/02/23 07:09:10;;;;;;;3.23;1.90;;;;;;;;;;5029853;28;20021;-72
2022/02/23 07:11:38;;;;;;;4.00;1.60;;;;;;;;;;5029795;28;20480;-72
2022/02/23 07:14:05;;;;;;;3.80;1.63;;;;;;;;;;5029747;28;20034;-72
2022/02/23 07:16:32;;;;;;;3.10;1.90;;;;;;;;;;5034229;28;20025;-72
2022/02/23 07:18:58;;;;;;;11.23;2.20;;;;;;;;;;5034545;28;20033;-72
2022/02/23 07:21:25;;;;;;;3.37;1.70;;;;;;;;;;5034662;28;20033;-72
2022/02/23 07:23:52;;;;;;;3.20;1.70;;;;;;;;;;5034896;28;20029;-72
2022/02/23 07:26:19;;;;;;;3.80;1.77;;;;;;;;;;5034822;28;20013;-72
2022/02/23 07:28:45;;;;;;;4.70;1.57;;;;;;;;;;5029816;28;20374;-72
2022/02/23 07:31:17;;;;;;;3.33;1.70;;;;;;;;;;5029791;28;20052;-72
2022/02/23 07:33:45;;;;;;;7.67;1.97;;;;;;;;;;5029560;28;20032;-72
2022/02/23 07:36:12;;;;;;;2.73;1.37;;;;;;;;;;5029084;28;20033;-72
2022/02/23 07:38:40;;;;;;;3.30;1.80;;;;;;;;;;5033715;28;20068;-72
2022/02/23 07:41:08;;;;;;;2.97;1.60;;;;;;;;;;5034542;28;20083;-72
2022/02/23 07:43:36;;;;;;;6.63;1.80;;;;;;;;;;5034651;28;20044;-72
2022/02/23 07:46:03;;;;;;;3.33;1.83;;;;;;;;;;5034287;28;20033;-72
2022/02/23 07:48:31;;;;;;;4.30;2.00;;;;;;;;;;5034382;28;20029;-72
2022/02/23 07:50:58;;;;;;;3.17;1.97;;;;;;;;;;5029440;28;20037;-72
2022/02/23 07:53:26;;;;;;;3.60;1.20;;;;;;;;;;5028769;28;20421;-72
2022/02/23 07:55:52;;;;;;;3.67;1.60;;;;;;;;;;5028395;28;20029;-72
2022/02/23 07:58:19;;;;;;;2.80;1.40;;;;;;;;;;5029216;28;20485;-72
2022/02/23 08:00:46;;;;;;;2.63;1.30;;;;;;;;;;5032407;28;20029;-72
2022/02/23 08:03:13;;;;;;;2.63;1.20;;;;;;;;;;5034139;28;20526;-72
2022/02/23 08:05:39;;;;;;;3.77;1.47;;;;;;;;;;5033691;28;20029;-72
2022/02/23 08:08:06;;;;;;;3.13;1.43;;;;;;;;;;5034126;28;20097;-72
2022/02/23 08:10:33;;;;;;;5.43;1.70;;;;;;;;;;5034074;28;20369;-72
2022/02/23 08:13:04;;;;;;;6.60;1.67;;;;;;;;;;5029799;28;20086;-72
2022/02/23 08:21:12;;;;;;;;;;;;;;;;;;4938700;28;20039;-72
2022/02/23 08:23:43;;;;;;;4.70;1.90;;;;;;;;;;5014169;28;19988;-72
2022/02/23 08:26:11;;;;;;;2.63;1.20;;;;;;;;;;5013600;28;20030;-72
2022/02/23 08:28:38;;;;;;;2.87;1.37;;;;;;;;;;5016471;28;20365;-72
2022/02/23 08:31:05;;;;;;;3.80;1.80;;;;;;;;;;5033686;28;20151;-72
2022/02/23 08:33:32;;;;;;;4.27;1.60;;;;;;;;;;5033089;28;20108;-72
2022/02/23 08:35:59;;;;;;;3.50;1.80;;;;;;;;;;5028204;28;20079;-72
2022/02/23 08:38:26;;;;;;;3.43;1.27;;;;;;;;;;5028538;28;20040;-72
2022/02/23 08:40:52;;;;;;;4.77;1.57;;;;;;;;;;5028105;28;20139;-72
2022/02/23 08:43:19;;;;;;;3.40;1.80;;;;;;;;;;5027472;28;20492;-72
2022/02/23 08:45:46;;;;;;;5.37;1.70;;;;;;;;;;5015223;28;20033;-72
2022/02/23 08:48:13;;;;;;;4.13;1.80;;;;;;;;;;5033430;28;20022;-72
2022/02/23 08:50:40;;;;;;;3.93;1.57;;;;;;;;;;5033131;28;20041;-72
2022/02/23 08:53:06;;;;;;;6.63;1.97;;;;;;;;;;5032889;28;20104;-72
2022/02/23 08:55:34;;;;;;;2.80;1.60;;;;;;;;;;5032955;28;20033;-72
2022/02/23 08:58:01;;;;;;;8.43;1.83;;;;;;;;;;5027468;28;20031;-72
2022/02/23 09:00:29;;;;;;;3.03;1.43;;;;;;;;;;5027744;28;20021;-72
2022/02/23 09:02:55;;;;;;;5.03;1.60;;;;;;;;;;5027930;28;20116;-72
2022/02/23 09:05:22;;;;;;;5.43;2.30;;;;;;;;;;5027648;28;20021;-72
2022/02/23 09:07:49;;;;;;;5.23;2.00;;;;;;;;;;5031535;28;20017;-72
2022/02/23 09:10:16;;;;;;;4.03;1.70;;;;;;;;;;5032704;28;20021;-72
2022/02/23 09:12:43;;;;;;;3.80;1.87;;;;;;;;;;5032899;28;20083;-72
2022/02/23 09:15:12;;;;;;;4.07;2.00;;;;;;;;;;5032384;28;20038;-72
2022/02/23 09:17:39;;;;;;;5.67;1.87;;;;;;;;;;5032717;28;20083;-72
2022/02/23 09:20:06;;;;;;;6.10;2.13;;;;;;;;;;5028086;28;20095;-72
2022/02/23 09:22:33;;;;;;;3.13;1.57;;;;;;;;;;5026885;28;20025;-72
2022/02/23 09:25:00;;;;;;;4.43;1.70;;;;;;;;;;5027519;28;20056;-72
2022/02/23 09:27:26;;;;;;;3.80;1.83;;;;;;;;;;5027321;28;20036;-72
2022/02/23 09:29:53;;;;;;;3.37;2.43;;;;;;;;;;5030650;28;20087;-72
2022/02/23 09:32:21;;;;;;;3.53;1.50;;;;;;;;;;5032538;28;20022;-72
2022/02/23 09:34:48;;;;;;;3.30;1.83;;;;;;;;;;5032429;28;20037;-72
2022/02/23 09:37:16;;;;;;;3.93;1.30;;;;;;;;;;5032604;28;20104;-72
2022/02/23 09:39:43;;;;;;;3.40;1.73;;;;;;;;;;5032492;28;20021;-72
2022/02/23 09:42:12;;;;;;;4.60;1.53;;;;;;;;;;5028065;28;20049;-72
2022/02/23 09:44:40;;;;;;;3.13;1.60;;;;;;;;;;5026551;28;20029;-72
2022/02/23 09:47:07;;;;;;;5.77;1.53;;;;;;;;;;5026965;28;20255;-71
2022/02/23 09:49:35;;;;;;;3.07;1.50;;;;;;;;;;5026927;28;20033;-72
2022/02/23 09:52:04;;;;;;;3.87;1.50;;;;;;;;;;5030998;28;20392;-72
2022/02/23 09:54:31;;;;;;;3.03;1.60;;;;;;;;;;5032155;28;20301;-72
2022/02/23 09:56:57;;;;;;;4.07;1.67;;;;;;;;;;5031981;28;20033;-71
2022/02/23 09:59:25;;;;;;;3.10;1.57;;;;;;;;;;5031456;28;20258;-71
2022/02/23 10:01:53;;;;;;;4.23;1.80;;;;;;;;;;5031993;28;20290;-71
2022/02/23 10:04:22;;;;;;;2.50;1.30;;;;;;;;;;5028011;28;20756;-72
2022/02/23 10:06:49;;;;;;;4.10;2.03;;;;;;;;;;5027035;28;20267;-72
2022/02/23 10:09:16;;;;;;;3.70;1.50;;;;;;;;;;5026894;28;20033;-71
2022/02/23 10:11:46;;;;;;;3.20;1.60;;;;;;;;;;5026348;28;20278;-71
2022/02/23 10:14:13;;;;;;;4.27;1.93;;;;;;;;;;5029958;28;20762;-71
2022/02/23 10:16:41;;;;;;;5.73;2.10;;;;;;;;;;5032145;28;20263;-72
2022/02/23 10:19:08;;;;;;;3.33;1.77;;;;;;;;;;5035421;28;20266;-71
2022/02/23 10:21:52;;;;;;;3.10;1.77;;;;;;;;;;5036034;28;20807;-72
2022/02/23 10:24:25;;;;;;;3.20;1.58;;;;;;;;;;5035812;28;20251;-71
2022/02/23 10:26:55;;;;;;;4.47;1.70;;;;;;;;;;5030790;28;20037;-71
2022/02/23 10:29:29;;;;;;;3.27;1.40;;;;;;;;;;5030205;28;20350;-71
2022/02/23 10:31:56;;;;;;;5.23;1.97;;;;;;;;;;5030576;28;21125;-71
2022/02/23 10:34:25;;;;;;;2.33;1.40;;;;;;;;;;5030485;28;20369;-71
2022/02/23 10:37:01;;;;;;;2.87;1.40;;;;;;;;;;5034716;28;20269;-71
2022/02/23 10:40:00;;;;;;;2.43;1.30;;;;;;;;;;5036016;28;20259;-71
2022/02/23 10:42:29;;;;;;;3.67;1.40;;;;;;;;;;5020167;28;20769;-71
2022/02/23 10:44:57;;;;;;;2.40;1.30;;;;;;;;;;5035293;28;20287;-71
2022/02/23 10:47:29;;;;;;;3.37;1.43;;;;;;;;;;5034527;28;20267;-71
2022/02/23 10:49:59;;;;;;;2.87;1.50;;;;;;;;;;5030145;28;20325;-71
2022/02/23 10:52:28;;;;;;;2.57;1.43;;;;;;;;;;5029743;28;20277;-71
2022/02/23 10:55:11;;;;;;;3.43;1.70;;;;;;;;;;5030299;28;20642;-71
2022/02/23 10:57:42;;;;;;;3.10;1.40;;;;;;;;;;5031686;28;20839;-71
2022/02/23 11:00:12;;;;;;;4.03;1.50;;;;;;;;;;5035215;28;20389;-71
2022/02/23 11:02:39;;;;;;;2.57;1.50;;;;;;;;;;5035440;28;20342;-71
2022/02/23 11:05:06;;;;;;;2.70;1.20;;;;;;;;;;5035282;28;20734;-72
2022/02/23 11:07:33;;;;;;;3.63;1.40;;;;;;;;;;5034370;28;20294;-71
2022/02/23 11:10:00;;;;;;;3.50;1.60;;;;;;;;;;5032954;28;20259;-71
2022/02/23 11:12:27;;;;;;;2.33;1.40;;;;;;;;;;5030058;28;20320;-71
2022/02/23 11:14:54;;;;;;;3.67;1.53;;;;;;;;;;5029725;28;21709;-71
2022/02/23 11:17:21;;;;;;;3.60;1.33;;;;;;;;;;5029926;28;20259;-71
2022/02/23 11:19:49;;;;;;;4.43;1.33;;;;;;;;;;5031034;28;20305;-71
2022/02/23 11:22:16;;;;;;;3.20;1.40;;;;;;;;;;5034088;28;20283;-71
2022/02/23 11:24:43;;;;;;;2.90;1.27;;;;;;;;;;5034885;28;20305;-71
2022/02/23 11:27:13;;;;;;;2.30;1.20;;;;;;;;;;5034704;28;20254;-71
2022/02/23 11:30:05;;;;;;;3.30;1.47;;;;;;;;;;5033441;28;20278;-72
2022/02/23 11:32:33;;;;;;;3.47;1.50;;;;;;;;;;5031966;28;20246;-71
2022/02/23 11:35:00;;;;;;;2.90;1.43;;;;;;;;;;5029408;28;20396;-71
2022/02/23 11:37:30;;;;;;;2.93;1.60;;;;;;;;;;5029462;28;20262;-71
2022/02/23 11:39:57;;;;;;;3.17;1.57;;;;;;;;;;5029636;28;20282;-71
2022/02/23 11:42:24;;;;;;;3.93;1.73;;;;;;;;;;5031579;28;20263;-71
2022/02/23 11:45:05;;;;;;;4.43;1.73;;;;;;;;;;5034085;28;20273;-71
2022/02/23 11:47:32;;;;;;;8.03;2.67;;;;;;;;;;5034588;28;20267;-71
2022/02/23 11:50:07;;;;;;;5.50;2.10;;;;;;;;;;5034233;28;20274;-71
2022/02/23 11:52:42;;;;;;;2.85;1.50;;;;;;;;;;5034424;28;20255;-72
2022/02/23 11:55:20;;;;;;;6.37;1.87;;;;;;;;;;5030708;28;20044;-71
2022/02/23 11:57:49;;;;;;;5.03;1.53;;;;;;;;;;5029274;28;20681;-71
2022/02/23 12:00:31;;;;;;;6.17;1.67;;;;;;;;;;5028586;28;20273;-71
2022/02/23 12:03:00;;;;;;;4.37;1.27;;;;;;;;;;5029055;28;20259;-71
2022/02/23 12:05:33;;;;;;;2.77;1.53;;;;;;;;;;5032294;28;20278;-71
2022/02/23 12:08:00;;;;;;;2.87;1.40;;;;;;;;;;5034107;28;20258;-71
2022/02/23 12:10:27;;;;;;;2.70;1.40;;;;;;;;;;5034207;28;20344;-71
2022/02/23 12:12:54;;;;;;;3.50;1.80;;;;;;;;;;5034079;28;20263;-71
2022/02/23 12:15:27;;;;;;;3.87;1.93;;;;;;;;;;5033696;28;20353;-71
2022/02/23 12:18:00;;;;;;;2.93;1.73;;;;;;;;;;5028758;28;20806;-71
2022/02/23 12:20:36;;;;;;;5.97;1.83;;;;;;;;;;5028663;28;20277;-71
2022/02/23 12:23:10;;;;;;;3.90;1.53;;;;;;;;;;5028675;28;20255;-72
2022/02/23 12:25:49;;;;;;;2.42;1.45;;;;;;;;;;5028419;28;20259;-71
2022/02/23 12:28:17;;;;;;;2.93;1.40;;;;;;;;;;5033717;28;20026;-71
2022/02/23 12:31:04;;;;;;;2.80;1.40;;;;;;;;;;5033353;28;20274;-71
2022/02/23 12:33:31;;;;;;;4.67;1.80;;;;;;;;;;5033320;28;20376;-71
2022/02/23 12:36:00;;;;;;;2.07;1.23;;;;;;;;;;5033458;28;20765;-71
2022/02/23 12:38:29;;;;;;;3.80;1.53;;;;;;;;;;5032584;28;20333;-71
2022/02/23 12:40:57;;;;;;;3.27;1.80;;;;;;;;;;5028023;28;20804;-71
2022/02/23 12:43:24;;;;;;;3.47;1.47;;;;;;;;;;5028246;28;20271;-71
2022/02/23 12:45:52;;;;;;;7.53;1.70;;;;;;;;;;5027372;28;20267;-71
2022/02/23 12:48:24;;;;;;;3.93;1.60;;;;;;;;;;5028553;28;20269;-71
2022/02/23 12:50:56;;;;;;;5.00;1.63;;;;;;;;;;5032652;28;20306;-71
2022/02/23 12:53:32;;;;;;;4.17;1.20;;;;;;;;;;5033191;28;20326;-71
2022/02/23 12:56:14;;;;;;;2.70;1.30;;;;;;;;;;5033255;28;20255;-71
2022/02/23 12:58:40;;;;;;;2.40;1.30;;;;;;;;;;5033122;28;20255;-71
2022/02/23 13:01:17;;;;;;;5.80;1.63;;;;;;;;;;5030266;28;20627;-71
2022/02/23 13:03:44;;;;;;;1.83;1.08;;;;;;;;;;5027918;28;20614;-71
2022/02/23 13:06:11;;;;;;;6.97;1.47;;;;;;;;;;5027606;28;20033;-71
2022/02/23 13:08:38;;;;;;;2.53;1.17;;;;;;;;;;5027559;28;20258;-71
2022/02/23 13:11:06;;;;;;;3.83;1.33;;;;;;;;;;5029309;28;20265;-71
2022/02/23 13:13:36;;;;;;;6.83;1.30;;;;;;;;;;5032317;28;20297;-71
2022/02/23 13:16:03;;;;;;;5.50;1.27;;;;;;;;;;5032491;28;20263;-71
2022/02/23 13:18:30;;;;;;;2.93;1.10;;;;;;;;;;5032807;28;20259;-71
2022/02/23 13:21:07;;;;;;;5.90;1.83;;;;;;;;;;5032448;28;20746;-71
2022/02/23 13:23:54;;;;;;;3.13;1.30;;;;;;;;;;5030032;28;20312;-71
2022/02/23 13:26:27;;;;;;;5.43;1.43;;;;;;;;;;5027124;28;20267;-71
2022/02/23 13:29:08;;;;;;;2.70;1.10;;;;;;;;;;5027321;28;20341;-71
2022/02/23 13:32:04;;;;;;;3.37;1.47;;;;;;;;;;5026950;28;20629;-71
2022/02/23 13:34:32;;;;;;;7.85;1.50;;;;;;;;;;5014701;28;20662;-71
2022/02/23 13:37:04;;;;;;;5.60;1.37;;;;;;;;;;5032179;28;20108;-71
2022/02/23 13:39:33;;;;;;;4.60;1.77;;;;;;;;;;5032469;28;20265;-72
2022/02/23 13:42:01;;;;;;;3.60;1.50;;;;;;;;;;5032004;28;20317;-72
2022/02/23 13:44:31;;;;;;;4.47;1.40;;;;;;;;;;5032356;28;20820;-72
2022/02/23 13:46:59;;;;;;;11.53;3.50;;;;;;;;;;5027115;28;20273;-71
2022/02/23 13:49:26;;;;;;;10.50;2.50;;;;;;;;;;5027251;28;20301;-72
2022/02/23 13:51:53;;;;;;;9.80;2.87;;;;;;;;;;5026060;28;20275;-72
2022/02/23 13:54:19;;;;;;;16.23;3.10;;;;;;;;;;5026665;28;20290;-72
2022/02/23 13:56:47;;;;;;;7.50;2.33;;;;;;;;;;5031487;28;20259;-72
2022/02/23 13:59:18;;;;;;;15.33;4.10;;;;;;;;;;5031990;28;20816;-72
2022/02/23 14:02:01;;;;;;;8.93;2.70;;;;;;;;;;5032219;28;20741;-72
2022/02/23 14:04:44;;;;;;;12.13;2.73;;;;;;;;;;5031335;28;20275;-69
2022/02/23 14:07:18;;;;;;;8.07;2.13;;;;;;;;;;5031407;28;20049;-69
2022/02/23 14:09:45;;;;;;;4.40;2.33;;;;;;;;;;5026906;28;20542;-70
2022/02/23 14:12:13;;;;;;;4.93;2.50;;;;;;;;;;5026968;28;20060;-69
2022/02/23 14:14:44;;;;;;;9.97;2.13;;;;;;;;;;5026792;28;20029;-69
2022/02/23 14:17:14;;;;;;;7.93;2.30;;;;;;;;;;5026685;28;20036;-69
2022/02/23 14:19:42;;;;;;;3.63;1.73;;;;;;;;;;5031741;28;20049;-68
2022/02/23 14:22:09;;;;;;;3.03;1.77;;;;;;;;;;5031996;28;20028;-69
2022/02/23 14:24:36;;;;;;;3.43;1.57;;;;;;;;;;5032096;28;20037;-69
2022/02/23 14:27:07;;;;;;;6.57;1.87;;;;;;;;;;5032113;28;20088;-69
2022/02/23 14:29:35;;;;;;;4.67;2.23;;;;;;;;;;5030162;28;20416;-69
2022/02/23 14:32:03;;;;;;;4.50;2.27;;;;;;;;;;5026402;28;20028;-69
2022/02/23 14:34:30;;;;;;;4.27;2.10;;;;;;;;;;5025880;28;20045;-70
2022/02/23 14:37:01;;;;;;;6.07;1.83;;;;;;;;;;5026734;28;20076;-69
2022/02/23 14:39:29;;;;;;;5.63;1.90;;;;;;;;;;5027577;28;20076;-69
2022/02/23 14:41:56;;;;;;;3.97;2.07;;;;;;;;;;5031185;28;20105;-69
2022/02/23 14:44:23;;;;;;;4.70;2.10;;;;;;;;;;5030828;28;20087;-69
2022/02/23 14:46:51;;;;;;;9.57;2.93;;;;;;;;;;5031767;28;20025;-69
2022/02/23 14:49:18;;;;;;;5.07;3.37;;;;;;;;;;5031196;28;20033;-69
2022/02/23 14:51:45;;;;;;;6.20;3.20;;;;;;;;;;5030460;28;20461;-69
2022/02/23 14:54:12;;;;;;;11.20;4.77;;;;;;;;;;5026281;28;20042;-69